Aviation Digital Data Service (ADDS)

Output produced by METARs form (1757 UTC 24 June 2019)
found at http://www.aviationweather.gov/metar/data/
 
Forecast for: OIAW (AHWAZ , IR)
Text: TAF OIAW 241730Z 2418/2524 29008KT 8000 NSC
Forecast period: 1800 UTC 24 June 2019 to 0000 UTC 26 June 2019
Forecast type: FROM: standard forecast or significant change
Winds: from the WNW (290 degrees) at 9 MPH (8 knots; 4.1 m/s)
Visibility: 5 miles (8 km)
Ceiling: unknown
Clouds: missing
Weather: no significant weather forecast for this period
Text: TEMPO 2509/2516 29018KT 5000 SA
Forecast period: 0900 to 1600 UTC 25 June 2019
Forecast type: TEMPORARY: The following changes expected for less than half the time period
Winds: from the WNW (290 degrees) at 21 MPH (18 knots; 9.3 m/s)
Visibility: 3 miles (5 km)
Ceiling: unknown
Clouds: missing
Weather: SA  (sand)